createdAt,value
2023-03-26T00:02:23.506Z,14.40
2023-03-26T00:04:51.197Z,14.40
2023-03-26T00:07:18.358Z,14.40
2023-03-26T00:09:45.242Z,14.40
2023-03-26T00:12:13.368Z,14.40
2023-03-26T00:14:40.941Z,14.40
2023-03-26T00:17:08.754Z,14.30
2023-03-26T00:19:35.855Z,14.30
2023-03-26T00:22:04.066Z,14.30
2023-03-26T00:24:30.961Z,14.30
2023-03-26T00:26:58.082Z,14.30
2023-03-26T00:29:28.379Z,14.30
2023-03-26T00:31:54.972Z,14.30
2023-03-26T00:34:23.107Z,14.30
2023-03-26T00:36:54.403Z,14.30
2023-03-26T00:39:24.026Z,14.30
2023-03-26T00:41:54.855Z,14.30
2023-03-26T00:44:22.193Z,14.30
2023-03-26T00:46:48.859Z,14.30
2023-03-26T00:49:15.531Z,14.30
2023-03-26T00:51:43.394Z,14.30
2023-03-26T00:54:11.425Z,14.20
2023-03-26T00:56:40.946Z,14.20
2023-03-26T00:59:11.445Z,14.20
2023-03-26T01:01:38.271Z,14.30
2023-03-26T01:04:27.922Z,14.30
2023-03-26T01:06:55.734Z,14.30
2023-03-26T01:09:24.204Z,14.30
2023-03-26T01:11:52.730Z,14.40
2023-03-26T01:14:23.562Z,14.40
2023-03-26T01:16:52.626Z,14.40
2023-03-26T01:19:30.138Z,14.40
2023-03-26T01:21:59.214Z,14.40
2023-03-26T01:24:26.316Z,14.40
2023-03-26T01:26:54.051Z,14.40
2023-03-26T01:29:50.572Z,14.50
2023-03-26T01:32:35.367Z,14.50
2023-03-26T01:35:12.463Z,14.50
2023-03-26T01:38:01.161Z,14.50
2023-03-26T01:40:27.970Z,14.50
2023-03-26T01:43:06.592Z,14.50
2023-03-26T01:45:37.081Z,14.50
2023-03-26T01:48:04.625Z,14.50
2023-03-26T01:50:31.554Z,14.50
2023-03-26T01:52:58.554Z,14.50
2023-03-26T01:55:37.326Z,14.50
2023-03-26T01:58:17.083Z,14.60
2023-03-26T02:01:04.290Z,14.60
2023-03-26T02:03:42.517Z,14.60
2023-03-26T02:06:47.908Z,14.60
2023-03-26T02:09:17.708Z,14.60
2023-03-26T02:11:45.003Z,14.60
2023-03-26T02:14:13.798Z,14.60
2023-03-26T02:16:41.272Z,14.60
2023-03-26T02:19:15.553Z,14.60
2023-03-26T02:21:42.367Z,14.60
2023-03-26T02:24:09.490Z,14.60
2023-03-26T02:26:37.837Z,14.60
2023-03-26T02:29:04.886Z,14.60
2023-03-26T02:31:32.065Z,14.60
2023-03-26T02:33:58.984Z,14.60
2023-03-26T02:36:27.968Z,14.60
2023-03-26T02:38:55.590Z,14.70
2023-03-26T02:41:22.544Z,14.70
2023-03-26T02:43:49.747Z,14.70
2023-03-26T02:46:16.840Z,14.80
2023-03-26T02:48:44.135Z,14.80
2023-03-26T02:51:10.928Z,14.80
2023-03-26T02:53:39.649Z,14.80
2023-03-26T02:56:06.972Z,14.80
2023-03-26T02:58:34.017Z,14.80
2023-03-26T03:01:03.330Z,14.80
2023-03-26T03:03:30.254Z,14.80
2023-03-26T03:05:57.455Z,14.80
2023-03-26T03:08:26.655Z,14.90
2023-03-26T03:11:12.958Z,14.90
2023-03-26T03:13:42.263Z,14.90
2023-03-26T03:16:09.622Z,14.90
2023-03-26T03:18:36.920Z,14.90
2023-03-26T03:21:04.485Z,14.90
2023-03-26T03:23:31.539Z,14.90
2023-03-26T03:25:58.741Z,14.90
2023-03-26T03:28:26.780Z,14.90
2023-03-26T03:30:53.990Z,14.90
2023-03-26T03:33:21.608Z,14.90
2023-03-26T03:35:49.729Z,14.90
2023-03-26T03:38:17.614Z,14.90
2023-03-26T03:40:44.353Z,14.90
2023-03-26T03:43:11.399Z,14.90
2023-03-26T03:45:38.133Z,14.90
2023-03-26T03:48:06.098Z,15.00
2023-03-26T03:50:35.464Z,15.00
2023-03-26T03:53:03.234Z,14.90
2023-03-26T03:55:30.317Z,15.00
2023-03-26T03:57:58.502Z,14.90
2023-03-26T04:00:25.755Z,14.90
2023-03-26T04:02:57.014Z,15.00
2023-03-26T04:05:23.742Z,14.90
2023-03-26T04:07:50.963Z,14.90
2023-03-26T04:10:19.317Z,14.90
2023-03-26T04:12:46.202Z,14.90
2023-03-26T04:15:13.268Z,14.90
2023-03-26T04:17:43.065Z,14.90
2023-03-26T04:20:14.877Z,14.90
2023-03-26T04:22:43.314Z,14.90
2023-03-26T04:25:11.248Z,14.90
2023-03-26T04:27:38.818Z,14.90
2023-03-26T04:30:06.886Z,14.90
2023-03-26T04:32:34.509Z,14.90
2023-03-26T04:35:04.838Z,14.90
2023-03-26T04:37:39.690Z,15.00
2023-03-26T04:40:13.648Z,15.00
2023-03-26T04:42:46.339Z,15.00
2023-03-26T04:45:14.460Z,15.00
2023-03-26T04:47:43.688Z,15.00
2023-03-26T04:50:11.326Z,15.00
2023-03-26T04:52:38.774Z,15.00
2023-03-26T04:55:16.974Z,15.00
2023-03-26T04:57:46.369Z,15.00
2023-03-26T05:00:19.645Z,15.10
2023-03-26T05:02:50.302Z,15.10
2023-03-26T05:05:17.537Z,15.10
2023-03-26T05:07:45.331Z,15.10
2023-03-26T05:10:16.052Z,15.10
2023-03-26T05:12:43.206Z,15.10
2023-03-26T05:15:11.617Z,15.10
2023-03-26T05:17:42.059Z,15.10
2023-03-26T05:20:30.245Z,15.10
2023-03-26T05:22:57.193Z,15.10
2023-03-26T05:25:23.785Z,15.10
2023-03-26T05:27:51.840Z,15.10
2023-03-26T05:30:20.939Z,15.10
2023-03-26T05:32:49.168Z,15.10
2023-03-26T05:35:17.514Z,15.10
2023-03-26T05:37:45.571Z,15.10
2023-03-26T05:40:14.863Z,15.20
2023-03-26T05:42:42.025Z,15.20
2023-03-26T05:45:09.827Z,15.20
2023-03-26T05:47:37.165Z,15.20
2023-03-26T05:50:05.316Z,15.20
2023-03-26T05:52:33.427Z,15.20
2023-03-26T05:55:00.343Z,15.20
2023-03-26T05:57:29.416Z,15.20
2023-03-26T05:59:57.334Z,15.20
2023-03-26T06:02:24.202Z,15.20
2023-03-26T06:04:51.179Z,15.20
2023-03-26T06:07:19.844Z,15.20
2023-03-26T06:09:49.009Z,15.20
2023-03-26T06:12:15.753Z,15.10
2023-03-26T06:14:45.880Z,15.20
2023-03-26T06:17:12.659Z,15.20
2023-03-26T06:19:39.440Z,15.20
2023-03-26T06:22:06.190Z,15.20
2023-03-26T06:24:33.381Z,15.20
2023-03-26T06:27:00.386Z,15.20
2023-03-26T06:29:29.760Z,15.20
2023-03-26T06:32:01.441Z,15.30
2023-03-26T06:34:33.061Z,15.30
2023-03-26T06:37:00.111Z,15.30
2023-03-26T06:39:26.890Z,15.30
2023-03-26T06:41:53.787Z,15.30
2023-03-26T06:44:21.088Z,15.30
2023-03-26T06:46:50.379Z,15.40
2023-03-26T06:49:17.157Z,15.40
2023-03-26T06:51:44.181Z,15.40
2023-03-26T06:54:10.974Z,15.40
2023-03-26T06:56:37.784Z,15.40
2023-03-26T06:59:05.765Z,15.40
2023-03-26T07:01:33.695Z,15.40
2023-03-26T07:04:01.995Z,15.50
2023-03-26T07:06:31.372Z,15.40
2023-03-26T07:08:58.386Z,15.50
2023-03-26T07:11:27.280Z,15.50
2023-03-26T07:13:56.335Z,15.50
2023-03-26T07:16:23.221Z,15.50
2023-03-26T07:18:50.035Z,15.60
2023-03-26T07:21:17.171Z,15.60
2023-03-26T07:23:44.457Z,15.60
2023-03-26T07:26:25.426Z,15.60
2023-03-26T07:29:04.822Z,15.70
2023-03-26T07:31:36.331Z,15.70
2023-03-26T07:34:19.239Z,15.80
2023-03-26T07:36:52.092Z,15.80
2023-03-26T07:39:28.120Z,15.80
2023-03-26T07:42:13.782Z,15.90
2023-03-26T07:44:40.681Z,15.90
2023-03-26T07:47:31.589Z,15.90
2023-03-26T07:49:59.121Z,16.00
2023-03-26T07:52:26.741Z,16.00
2023-03-26T07:54:53.623Z,16.10
2023-03-26T07:57:23.418Z,16.10
2023-03-26T07:59:57.556Z,16.10
2023-03-26T08:02:24.174Z,16.10
2023-03-26T08:05:19.822Z,16.10
2023-03-26T08:08:05.738Z,16.10
2023-03-26T08:10:44.762Z,16.10
2023-03-26T08:13:27.079Z,16.10
2023-03-26T08:16:12.614Z,16.10
2023-03-26T08:18:41.506Z,16.10
2023-03-26T08:21:21.199Z,16.10
2023-03-26T08:23:52.088Z,16.20
2023-03-26T08:26:18.678Z,16.20
2023-03-26T08:29:04.449Z,16.20
2023-03-26T08:31:36.093Z,16.20
2023-03-26T08:34:02.908Z,16.20
2023-03-26T08:36:29.953Z,16.20
2023-03-26T08:38:57.678Z,16.20
2023-03-26T08:41:25.477Z,16.20
2023-03-26T08:43:57.008Z,16.20
2023-03-26T08:46:43.195Z,16.20
2023-03-26T08:49:18.920Z,16.30
2023-03-26T08:52:10.139Z,16.30
2023-03-26T08:54:36.936Z,16.30
2023-03-26T08:57:20.995Z,16.30
2023-03-26T09:00:01.417Z,16.30
2023-03-26T09:02:32.181Z,16.40
2023-03-26T09:05:07.724Z,16.40
2023-03-26T09:07:38.258Z,16.40
2023-03-26T09:10:16.363Z,16.40
2023-03-26T09:12:46.175Z,16.40
2023-03-26T09:15:34.640Z,16.40
2023-03-26T09:18:19.955Z,16.40
2023-03-26T09:21:05.376Z,16.40
2023-03-26T09:23:52.563Z,16.50
2023-03-26T09:26:25.563Z,16.50
2023-03-26T09:28:57.959Z,16.60
2023-03-26T09:31:24.629Z,16.60
2023-03-26T09:33:52.595Z,16.60
2023-03-26T09:36:22.347Z,16.50
2023-03-26T09:38:54.857Z,16.50
2023-03-26T09:41:40.441Z,16.50
2023-03-26T09:44:22.605Z,16.50
2023-03-26T09:46:52.530Z,16.50
2023-03-26T09:49:21.585Z,16.40
2023-03-26T09:51:48.551Z,16.40
2023-03-26T09:54:39.457Z,16.50
2023-03-26T09:57:21.236Z,16.40
2023-03-26T09:59:54.128Z,16.40
2023-03-26T10:02:45.911Z,16.40
2023-03-26T10:05:28.000Z,16.50
2023-03-26T10:08:14.629Z,16.50
2023-03-26T10:10:47.362Z,16.50
2023-03-26T10:13:23.512Z,16.50
2023-03-26T10:15:57.669Z,16.40
2023-03-26T10:18:27.784Z,16.50
2023-03-26T10:21:03.824Z,16.40
2023-03-26T10:23:51.132Z,16.40
2023-03-26T10:26:17.755Z,16.40
2023-03-26T10:29:07.316Z,16.30
2023-03-26T10:31:34.333Z,16.30
2023-03-26T10:34:28.078Z,16.30
2023-03-26T10:37:16.308Z,16.20
2023-03-26T10:40:10.238Z,16.20
2023-03-26T10:42:56.163Z,16.20
2023-03-26T10:45:32.236Z,16.10
2023-03-26T10:48:05.150Z,16.10
2023-03-26T10:50:52.388Z,16.10
2023-03-26T10:53:22.219Z,16.10
2023-03-26T10:55:53.600Z,16.10
2023-03-26T10:58:23.429Z,16.00
2023-03-26T11:00:54.293Z,16.00
2023-03-26T11:03:31.501Z,16.10
2023-03-26T11:05:58.416Z,16.10
2023-03-26T11:08:45.941Z,16.10
2023-03-26T11:11:28.207Z,16.10
2023-03-26T11:14:05.339Z,16.10
2023-03-26T11:16:36.131Z,16.10
2023-03-26T11:19:06.164Z,16.10
2023-03-26T11:21:32.859Z,16.00
2023-03-26T11:24:07.617Z,15.90
2023-03-26T11:26:56.142Z,15.90
2023-03-26T11:29:42.058Z,15.90
2023-03-26T11:32:13.813Z,15.80
2023-03-26T11:34:42.968Z,15.80
2023-03-26T11:37:18.707Z,15.70
2023-03-26T11:39:56.329Z,15.70
2023-03-26T11:42:24.759Z,15.70
2023-03-26T11:44:56.102Z,15.60
2023-03-26T11:47:49.376Z,15.60
2023-03-26T11:50:18.719Z,15.60
2023-03-26T11:52:47.224Z,15.60
2023-03-26T11:55:14.228Z,15.60
2023-03-26T11:57:43.229Z,15.50
2023-03-26T12:00:17.642Z,15.50
2023-03-26T12:02:48.038Z,15.50
2023-03-26T12:05:26.327Z,15.40
2023-03-26T12:07:57.451Z,15.40
2023-03-26T12:10:38.908Z,15.40
2023-03-26T12:13:23.724Z,15.40
2023-03-26T12:15:50.660Z,15.30
2023-03-26T12:18:25.087Z,15.40
2023-03-26T12:21:18.384Z,15.40
2023-03-26T12:23:58.061Z,15.40
2023-03-26T12:26:45.767Z,15.50
2023-03-26T12:29:13.893Z,15.60
2023-03-26T12:31:42.723Z,15.60
2023-03-26T12:34:18.740Z,15.60
2023-03-26T12:36:49.544Z,15.60
2023-03-26T12:40:07.794Z,15.70
2023-03-26T12:44:55.980Z,15.80
2023-03-26T12:45:32.124Z,15.90
2023-03-26T12:48:03.544Z,16.00
2023-03-26T12:50:42.730Z,16.20
2023-03-26T12:53:21.377Z,16.30
2023-03-26T12:55:54.534Z,16.30
2023-03-26T12:58:38.327Z,16.40
2023-03-26T13:01:08.770Z,16.50
2023-03-26T13:03:44.796Z,16.60
2023-03-26T13:06:17.275Z,16.60
2023-03-26T13:09:01.458Z,16.60
2023-03-26T13:11:28.677Z,16.60
2023-03-26T13:14:03.046Z,16.60
2023-03-26T13:16:34.472Z,16.50
2023-03-26T13:19:01.349Z,16.50
2023-03-26T13:21:28.641Z,16.40
2023-03-26T13:24:04.345Z,16.40
2023-03-26T13:26:37.071Z,16.40
2023-03-26T13:29:12.575Z,16.40
2023-03-26T13:31:42.024Z,16.30
2023-03-26T13:34:27.807Z,16.40
2023-03-26T13:37:07.036Z,16.40
2023-03-26T13:39:37.116Z,16.50
2023-03-26T13:42:07.282Z,16.50
2023-03-26T13:44:41.197Z,16.40
2023-03-26T13:47:13.357Z,16.40
2023-03-26T13:49:41.943Z,16.50
2023-03-26T13:52:12.884Z,16.40
2023-03-26T13:54:55.048Z,16.50
2023-03-26T13:57:29.674Z,16.50
2023-03-26T14:00:16.523Z,16.60
2023-03-26T14:02:44.383Z,16.50
2023-03-26T14:05:25.747Z,16.60
2023-03-26T14:07:58.672Z,16.70
2023-03-26T14:10:28.574Z,16.60
2023-03-26T14:12:55.157Z,16.60
2023-03-26T14:15:34.701Z,16.70
2023-03-26T14:18:19.527Z,16.70
2023-03-26T14:21:09.505Z,16.70
2023-03-26T14:24:02.563Z,16.60
2023-03-26T14:26:48.138Z,16.60
2023-03-26T14:29:29.775Z,16.60
2023-03-26T14:32:14.708Z,16.60
2023-03-26T14:34:51.221Z,16.40
2023-03-26T14:37:29.916Z,16.30
2023-03-26T14:40:26.108Z,16.20
2023-03-26T14:43:11.495Z,16.20
2023-03-26T14:45:38.232Z,16.10
2023-03-26T14:48:26.774Z,16.00
2023-03-26T14:50:54.761Z,16.00
2023-03-26T14:53:42.542Z,16.00
2023-03-26T14:56:09.256Z,15.90
2023-03-26T14:58:55.527Z,15.90
2023-03-26T15:01:25.440Z,15.90
2023-03-26T15:04:03.659Z,15.80
2023-03-26T15:06:33.516Z,15.80
2023-03-26T15:09:03.634Z,15.80
2023-03-26T15:11:49.288Z,15.70
2023-03-26T15:14:34.800Z,15.70
2023-03-26T15:17:04.577Z,15.70
2023-03-26T15:19:42.932Z,15.70
2023-03-26T15:22:15.755Z,15.70
2023-03-26T15:24:42.435Z,15.70
2023-03-26T15:27:18.978Z,15.70
2023-03-26T15:30:04.705Z,15.80
2023-03-26T15:32:52.774Z,15.80
2023-03-26T15:35:34.288Z,15.80
2023-03-26T15:38:13.507Z,15.80
2023-03-26T15:40:58.788Z,15.90
2023-03-26T15:43:28.544Z,15.80
2023-03-26T15:46:10.428Z,15.80
2023-03-26T15:48:37.883Z,15.80
2023-03-26T15:51:07.659Z,15.80
2023-03-26T15:53:50.019Z,15.70
2023-03-26T15:56:40.594Z,15.70
2023-03-26T15:59:16.546Z,15.70
2023-03-26T16:02:07.710Z,15.70
2023-03-26T16:04:34.681Z,15.60
2023-03-26T16:07:29.221Z,15.40
2023-03-26T16:10:16.062Z,15.40
2023-03-26T16:12:48.883Z,15.30
2023-03-26T16:15:23.170Z,15.30
2023-03-26T16:18:09.842Z,15.30
2023-03-26T16:20:51.189Z,15.20
2023-03-26T16:23:27.113Z,15.10
2023-03-26T16:26:05.955Z,15.10
2023-03-26T16:28:34.388Z,15.10
2023-03-26T16:31:36.718Z,15.00
2023-03-26T16:34:08.106Z,14.90
2023-03-26T16:36:39.098Z,14.90
2023-03-26T16:39:05.930Z,14.80
2023-03-26T16:41:35.758Z,14.80
2023-03-26T16:44:04.547Z,14.70
2023-03-26T16:46:31.256Z,14.70
2023-03-26T16:49:09.584Z,14.60
2023-03-26T16:51:39.868Z,14.50
2023-03-26T16:54:19.005Z,14.50
2023-03-26T16:57:09.493Z,14.50
2023-03-26T16:59:58.344Z,14.40
2023-03-26T17:02:37.087Z,14.40
2023-03-26T17:05:17.807Z,14.40
2023-03-26T17:08:00.459Z,14.40
2023-03-26T17:10:52.672Z,14.40
2023-03-26T17:13:24.647Z,14.40
2023-03-26T17:15:51.407Z,14.30
2023-03-26T17:18:18.354Z,14.40
2023-03-26T17:21:03.480Z,14.30
2023-03-26T17:23:38.399Z,14.30
2023-03-26T17:26:12.254Z,14.20
2023-03-26T17:28:52.258Z,14.20
2023-03-26T17:31:42.717Z,14.20
2023-03-26T17:34:28.360Z,14.20
2023-03-26T17:36:56.319Z,14.10
2023-03-26T17:39:43.458Z,14.10
2023-03-26T17:42:13.695Z,14.00
2023-03-26T17:44:42.305Z,14.00
2023-03-26T17:47:24.200Z,13.90
2023-03-26T17:49:53.852Z,13.90
2023-03-26T17:52:33.840Z,13.80
2023-03-26T17:55:01.773Z,13.80
2023-03-26T17:57:40.311Z,13.80
2023-03-26T18:00:09.319Z,13.80
2023-03-26T18:02:42.645Z,13.70
2023-03-26T18:05:13.298Z,13.60
2023-03-26T18:07:59.024Z,13.60
2023-03-26T18:10:33.419Z,13.60
2023-03-26T18:13:12.644Z,13.50
2023-03-26T18:16:05.008Z,13.50
2023-03-26T18:18:41.109Z,13.50
2023-03-26T18:21:07.936Z,13.40
2023-03-26T18:23:38.937Z,13.40
2023-03-26T18:26:28.655Z,13.30
2023-03-26T18:29:10.854Z,13.20
2023-03-26T18:31:40.829Z,13.20
2023-03-26T18:34:13.190Z,13.20
2023-03-26T18:36:39.984Z,13.10
2023-03-26T18:39:11.733Z,13.10
2023-03-26T18:41:41.748Z,13.10
2023-03-26T18:44:15.667Z,13.20
2023-03-26T18:46:42.881Z,13.20
2023-03-26T18:49:13.401Z,13.20
2023-03-26T18:51:54.039Z,13.10
2023-03-26T18:54:23.517Z,13.10
2023-03-26T18:56:52.225Z,13.20
2023-03-26T18:59:19.856Z,13.10
2023-03-26T19:01:47.700Z,13.20
2023-03-26T19:04:16.280Z,13.20
2023-03-26T19:06:43.774Z,13.10
2023-03-26T19:09:28.200Z,13.20
2023-03-26T19:12:02.136Z,13.10
2023-03-26T19:14:29.030Z,13.10
2023-03-26T19:16:58.293Z,13.00
2023-03-26T19:19:32.816Z,13.00
2023-03-26T19:21:59.902Z,13.00
2023-03-26T19:24:27.534Z,13.00
2023-03-26T19:26:54.326Z,12.90
2023-03-26T19:29:27.220Z,12.90
2023-03-26T19:32:00.790Z,12.90
2023-03-26T19:34:39.969Z,12.80
2023-03-26T19:37:18.485Z,12.80
2023-03-26T19:39:47.152Z,12.80
2023-03-26T19:42:15.051Z,12.80
2023-03-26T19:44:43.569Z,12.80
2023-03-26T19:47:24.936Z,12.80
2023-03-26T19:50:02.060Z,12.80
2023-03-26T19:52:32.726Z,12.70
2023-03-26T19:55:02.925Z,12.70
2023-03-26T19:57:30.820Z,12.70
2023-03-26T19:59:58.495Z,12.70
2023-03-26T20:02:26.155Z,12.60
2023-03-26T20:04:53.031Z,12.50
2023-03-26T20:07:22.284Z,12.50
2023-03-26T20:10:03.122Z,12.50
2023-03-26T20:12:29.853Z,12.40
2023-03-26T20:14:57.053Z,12.40
2023-03-26T20:17:24.028Z,12.30
2023-03-26T20:19:51.395Z,12.30
2023-03-26T20:22:20.858Z,12.30
2023-03-26T20:24:47.850Z,12.20
2023-03-26T20:27:15.161Z,12.20
2023-03-26T20:29:42.320Z,12.30
2023-03-26T20:32:23.646Z,12.30
2023-03-26T20:34:52.060Z,12.30
2023-03-26T20:37:18.923Z,12.20
2023-03-26T20:39:46.051Z,12.20
2023-03-26T20:42:15.804Z,12.20
2023-03-26T20:44:42.837Z,12.20
2023-03-26T20:47:10.707Z,12.20
2023-03-26T20:49:37.516Z,12.20
2023-03-26T20:52:04.434Z,12.20
2023-03-26T20:54:31.422Z,12.20
2023-03-26T20:56:58.657Z,12.20
2023-03-26T20:59:27.598Z,12.10
2023-03-26T21:01:57.178Z,12.10
2023-03-26T21:04:26.778Z,12.10
2023-03-26T21:07:00.407Z,12.10
2023-03-26T21:09:34.158Z,12.10
2023-03-26T21:12:20.172Z,12.00
2023-03-26T21:14:47.629Z,12.00
2023-03-26T21:17:16.351Z,11.90
2023-03-26T21:19:43.689Z,11.90
2023-03-26T21:22:21.007Z,11.90
2023-03-26T21:24:51.102Z,11.80
2023-03-26T21:27:37.323Z,11.70
2023-03-26T21:30:06.843Z,11.60
2023-03-26T21:32:34.049Z,11.60
2023-03-26T21:35:01.074Z,11.60
2023-03-26T21:37:28.221Z,11.50
2023-03-26T21:39:55.071Z,11.50
2023-03-26T21:42:22.120Z,11.40
2023-03-26T21:44:49.223Z,11.40
2023-03-26T21:47:16.215Z,11.40
2023-03-26T21:49:43.306Z,11.40
2023-03-26T21:52:15.113Z,11.30
2023-03-26T21:54:43.270Z,11.30
2023-03-26T21:57:14.345Z,11.20
2023-03-26T21:59:43.940Z,11.20
2023-03-26T22:02:17.372Z,11.10
2023-03-26T22:04:44.141Z,11.10
2023-03-26T22:07:16.035Z,11.00
2023-03-26T22:09:43.855Z,11.00
2023-03-26T22:12:11.105Z,11.00
2023-03-26T22:14:38.214Z,11.00
2023-03-26T22:17:05.972Z,11.00
2023-03-26T22:19:34.637Z,11.00
2023-03-26T22:22:01.805Z,11.00
2023-03-26T22:24:29.014Z,11.00
2023-03-26T22:26:56.108Z,11.00
2023-03-26T22:29:22.850Z,11.00
2023-03-26T22:31:49.631Z,11.10
2023-03-26T22:34:16.706Z,11.10
2023-03-26T22:36:43.587Z,11.10
2023-03-26T22:39:11.045Z,11.20
2023-03-26T22:41:37.978Z,11.20
2023-03-26T22:44:16.762Z,11.20
2023-03-26T22:46:48.965Z,11.20
2023-03-26T22:49:16.309Z,11.20
2023-03-26T22:51:46.076Z,11.20
2023-03-26T22:54:13.503Z,11.20
2023-03-26T22:56:42.026Z,11.20
2023-03-26T22:59:08.823Z,11.20
2023-03-26T23:01:36.167Z,11.10
2023-03-26T23:04:05.356Z,11.10
2023-03-26T23:06:32.215Z,11.00
2023-03-26T23:09:00.183Z,11.00
2023-03-26T23:11:29.583Z,10.90
2023-03-26T23:13:56.491Z,10.90
2023-03-26T23:16:23.465Z,10.80
2023-03-26T23:18:51.862Z,10.80
2023-03-26T23:21:19.931Z,10.70
2023-03-26T23:23:47.259Z,10.70
2023-03-26T23:26:14.890Z,10.70
2023-03-26T23:28:42.220Z,10.70
2023-03-26T23:31:09.955Z,10.70
2023-03-26T23:33:37.882Z,10.80
2023-03-26T23:36:08.922Z,10.80
2023-03-26T23:38:43.024Z,10.80
2023-03-26T23:41:14.980Z,10.80
2023-03-26T23:43:54.763Z,10.90
2023-03-26T23:46:23.993Z,10.90
2023-03-26T23:48:53.014Z,10.90
2023-03-26T23:51:20.347Z,10.90
2023-03-26T23:53:47.609Z,11.00
2023-03-26T23:56:15.398Z,11.00
2023-03-26T23:58:42.307Z,11.00
